As Vega — D5IM3 — position and weather

sailwx.info

Track history (hours):
 
Tides and Currents Weather Stations Pressure Air Temp Water Temp Dewpoint Dewpoint Depression Visibility Wind Speed Wind Dir Waves Ship Positions

As Vega

Last reported at 2018-Jan-23 15:25 UTC. Time now 2018-Feb-20 05:09 UTC.
Position N 37°01' W 029°44'.
Warning: this ship's position is 27 days out of date.

Length 194 m; draft 10.7 m.

Type: Ship. MMSI: 538090289.

Date/timePositionNaut miles runAvg speedWind from/ knotsBaromVisibWave heightAir tempDewpointWater temp
2018-Jan-23 15:25N 37°01' W 029°44'818.9
2018-Jan-23 15:00N 37°05' W 029°35'1019.2
2018-Jan-23 14:29N 37°10' W 029°24'918.8
2018-Jan-23 14:00N 37°14' W 029°14'1018.9
2018-Jan-23 13:30N 37°18' W 029°04'918.6
2018-Jan-23 13:00N 37°23' W 028°53'918.5
2018-Jan-23 12:30N 37°27' W 028°43'918.7
2018-Jan-23 12:00N 37°32' W 028°33'918.5
2018-Jan-23 11:30N 37°36' W 028°23'918.7
2018-Jan-23 11:00N 37°40' W 028°12'918.6
2018-Jan-23 10:30N 37°45' W 028°02'918.7
2018-Jan-23 10:00N 37°49' W 027°51'1019.1
2018-Jan-23 09:30N 37°54' W 027°41'1019.3
2018-Jan-23 09:00N 37°58' W 027°30'1119.1
2018-Jan-23 08:25N 38°03' W 027°17'1418.8
2018-Jan-23 07:40N 38°10' W 027°01'319.1
2018-Jan-23 07:30N 38°11' W 026°58'919.1
2018-Jan-23 07:01N 38°16' W 026°47'1018.9
2018-Jan-23 06:30N 38°21' W 026°37'918.6
2018-Jan-23 06:00N 38°25' W 026°26'1018.8
2018-Jan-23 05:30N 38°30' W 026°16'2318.9
2018-Jan-23 04:17N 38°41' W 025°50'518.9
2018-Jan-23 04:00N 38°43' W 025°44'918.7
2018-Jan-23 03:30N 38°48' W 025°34'  
2018-Jan-20 04:28N 49°48' W 003°26'1018.7
2018-Jan-20 03:54N 49°53' W 003°12'819.5
2018-Jan-20 03:30N 49°57' W 003°01'919.5
2018-Jan-20 03:00N 49°60' W 002°47'9217.1
2018-Jan-19 21:38N 50°25' W 000°29'215.0
2018-Jan-19 21:30N 50°25' W 000°26'815.5
2018-Jan-19 21:00N 50°27' W 000°14'816.0
2018-Jan-19 20:30N 50°29' W 000°02'816.5
2018-Jan-19 20:00N 50°30' E 000°11'917.1
2018-Jan-19 19:30N 50°33' E 000°24'917.7
2018-Jan-19 19:00N 50°37' E 000°36'917.9
2018-Jan-19 18:30N 50°41' E 000°49'2218.0
2018-Jan-19 17:18N 50°54' E 001°16'517.6
2018-Jan-19 17:00N 50°57' E 001°22'816.9
2018-Jan-19 16:30N 51°04' E 001°31'816.0
2018-Jan-19 16:00N 51°09' E 001°41'815.7
2018-Jan-19 15:30N 51°15' E 001°49'815.8
2018-Jan-19 15:00N 51°22' E 001°55'815.9
2018-Jan-19 14:30N 51°29' E 002°01'815.9
2018-Jan-19 14:00N 51°34' E 002°10'916.2
2018-Jan-19 13:26N 51°41' E 002°20'816.9
2018-Jan-19 12:59N 51°47' E 002°29'817.5
2018-Jan-19 12:30N 51°53' E 002°38'918.1
2018-Jan-19 11:59N 51°60' E 002°48'918.0
2018-Jan-19 11:30N 52°02' E 003°02'918.3
2018-Jan-19 11:00N 52°03' E 003°17'918.3
2018-Jan-19 10:30N 52°04' E 003°32'917.6
2018-Jan-19 10:00N 52°03' E 003°46'611.5
2018-Jan-19 09:31N 52°02' E 003°55'714.6
2018-Jan-19 09:00N 51°58' E 004°05'2 3.8
2018-Jan-19 08:30N 51°57' E 004°03'0 0.6
2018-Jan-19 07:58N 51°57' E 004°03'0 0.0
2018-Jan-19 07:25N 51°57' E 004°03'0 0.0
2018-Jan-19 06:58N 51°57' E 004°03'0 0.0
2018-Jan-19 06:28N 51°57' E 004°03'0 0.0
2018-Jan-19 05:58N 51°57' E 004°03'0 0.0
2018-Jan-19 05:28N 51°57' E 004°03'0 0.0
2018-Jan-19 04:58N 51°57' E 004°03'0 0.0
2018-Jan-19 04:28N 51°57' E 004°03'0 0.0
2018-Jan-19 03:58N 51°57' E 004°03'0 0.0
2018-Jan-19 03:28N 51°57' E 004°03'0 0.0
2018-Jan-19 02:58N 51°57' E 004°03'0 0.0
2018-Jan-19 02:28N 51°57' E 004°03'0 0.0
2018-Jan-19 01:58N 51°57' E 004°03'0 0.0
2018-Jan-19 01:28N 51°57' E 004°03'0 0.0
2018-Jan-19 00:58N 51°57' E 004°03'0 0.0
2018-Jan-19 00:28N 51°57' E 004°03'0 0.0
2018-Jan-18 23:58N 51°57' E 004°03'0 0.0
2018-Jan-18 23:25N 51°57' E 004°03'0 0.0
2018-Jan-18 22:58N 51°57' E 004°03'0 0.0
2018-Jan-18 22:28N 51°57' E 004°03'0 0.0
2018-Jan-18 21:58N 51°57' E 004°03'0 0.0
2018-Jan-18 21:28N 51°57' E 004°03'0 0.0
2018-Jan-18 20:58N 51°57' E 004°03'0 0.0
2018-Jan-18 20:25N 51°57' E 004°03'0 0.0
2018-Jan-18 19:58N 51°57' E 004°03'0 0.0
2018-Jan-18 19:28N 51°57' E 004°03'0 0.0
2018-Jan-18 18:55N 51°57' E 004°03'0 0.0
2018-Jan-18 18:25N 51°57' E 004°03'0 0.0
2018-Jan-18 17:58N 51°57' E 004°03'0 0.0
2018-Jan-18 17:28N 51°57' E 004°03'0 0.0
2018-Jan-18 16:58N 51°57' E 004°03'0 0.0
2018-Jan-18 16:28N 51°57' E 004°03'0 0.0
2018-Jan-18 15:55N 51°57' E 004°03'0 0.0
2018-Jan-18 15:28N 51°57' E 004°03'0 0.0
2018-Jan-18 14:58N 51°57' E 004°03'0 0.0
2018-Jan-18 14:25N 51°57' E 004°03'0 0.0
2018-Jan-18 13:58N 51°57' E 004°03'0 0.0
2018-Jan-18 13:28N 51°57' E 004°03'0 0.0
2018-Jan-18 12:58N 51°57' E 004°03'0 0.0
2018-Jan-18 12:28N 51°57' E 004°03'0 0.0
2018-Jan-18 11:58N 51°57' E 004°03'0 0.0
2018-Jan-18 11:28N 51°57' E 004°03'0 0.0
2018-Jan-18 10:58N 51°57' E 004°03'0 0.0
2018-Jan-18 10:28N 51°57' E 004°03'0 0.0
2018-Jan-18 09:58N 51°57' E 004°03'0 0.0
2018-Jan-18 09:28N 51°57' E 004°03'0 0.0
2018-Jan-18 08:58N 51°57' E 004°03'0 0.0
2018-Jan-18 08:28N 51°57' E 004°03'0 0.0
2018-Jan-18 07:58N 51°57' E 004°03'0 0.0
2018-Jan-18 07:28N 51°57' E 004°03'0 0.0
2018-Jan-18 06:58N 51°57' E 004°03'0 0.0
2018-Jan-18 06:28N 51°57' E 004°03'0 0.0
2018-Jan-18 05:58N 51°57' E 004°03'0 0.0
2018-Jan-18 05:28N 51°57' E 004°03'0 0.0
2018-Jan-18 04:58N 51°57' E 004°03'0 0.0
2018-Jan-18 04:28N 51°57' E 004°03'0 0.0
2018-Jan-18 03:58N 51°57' E 004°03'0 0.0
2018-Jan-18 03:28N 51°57' E 004°03'0 0.0
2018-Jan-18 02:58N 51°57' E 004°03'0 0.0
2018-Jan-18 02:28N 51°57' E 004°03'0 0.0
2018-Jan-18 01:58N 51°57' E 004°03'0 0.0
2018-Jan-18 01:28N 51°57' E 004°03'0 0.0
2018-Jan-18 00:58N 51°57' E 004°03'0 0.0
2018-Jan-17 23:55N 51°57' E 004°03'  
Track history (hours):
 
Tides and Currents Weather Stations Pressure Air Temp Water Temp Dewpoint Dewpoint Depression Visibility Wind Speed Wind Dir Waves Ship Positions

As Vega

Last reported at 2018-Jan-23 15:25 UTC. Time now 2018-Feb-20 05:09 UTC.
Position N 37°01' W 029°44'.
Warning: this ship's position is 27 days out of date.

Length 194 m; draft 10.7 m.

Type: Ship. MMSI: 538090289.

Date/timePositionNaut miles runAvg speedWind from/ knotsBaromVisibWave heightAir tempDewpointWater temp
2018-Jan-23 15:25N 37°01' W 029°44'818.9
2018-Jan-23 15:00N 37°05' W 029°35'1019.2
2018-Jan-23 14:29N 37°10' W 029°24'918.8
2018-Jan-23 14:00N 37°14' W 029°14'1018.9
2018-Jan-23 13:30N 37°18' W 029°04'918.6
2018-Jan-23 13:00N 37°23' W 028°53'918.5
2018-Jan-23 12:30N 37°27' W 028°43'918.7
2018-Jan-23 12:00N 37°32' W 028°33'918.5
2018-Jan-23 11:30N 37°36' W 028°23'918.7
2018-Jan-23 11:00N 37°40' W 028°12'918.6
2018-Jan-23 10:30N 37°45' W 028°02'918.7
2018-Jan-23 10:00N 37°49' W 027°51'1019.1
2018-Jan-23 09:30N 37°54' W 027°41'1019.3
2018-Jan-23 09:00N 37°58' W 027°30'1119.1
2018-Jan-23 08:25N 38°03' W 027°17'1418.8
2018-Jan-23 07:40N 38°10' W 027°01'319.1
2018-Jan-23 07:30N 38°11' W 026°58'919.1
2018-Jan-23 07:01N 38°16' W 026°47'1018.9
2018-Jan-23 06:30N 38°21' W 026°37'918.6
2018-Jan-23 06:00N 38°25' W 026°26'1018.8
2018-Jan-23 05:30N 38°30' W 026°16'2318.9
2018-Jan-23 04:17N 38°41' W 025°50'518.9
2018-Jan-23 04:00N 38°43' W 025°44'918.7
2018-Jan-23 03:30N 38°48' W 025°34'  
2018-Jan-20 04:28N 49°48' W 003°26'1018.7
2018-Jan-20 03:54N 49°53' W 003°12'819.5
2018-Jan-20 03:30N 49°57' W 003°01'919.5
2018-Jan-20 03:00N 49°60' W 002°47'9217.1
2018-Jan-19 21:38N 50°25' W 000°29'215.0
2018-Jan-19 21:30N 50°25' W 000°26'815.5
2018-Jan-19 21:00N 50°27' W 000°14'816.0
2018-Jan-19 20:30N 50°29' W 000°02'816.5
2018-Jan-19 20:00N 50°30' E 000°11'917.1
2018-Jan-19 19:30N 50°33' E 000°24'917.7
2018-Jan-19 19:00N 50°37' E 000°36'917.9
2018-Jan-19 18:30N 50°41' E 000°49'2218.0
2018-Jan-19 17:18N 50°54' E 001°16'517.6
2018-Jan-19 17:00N 50°57' E 001°22'816.9
2018-Jan-19 16:30N 51°04' E 001°31'816.0
2018-Jan-19 16:00N 51°09' E 001°41'815.7
2018-Jan-19 15:30N 51°15' E 001°49'815.8
2018-Jan-19 15:00N 51°22' E 001°55'815.9
2018-Jan-19 14:30N 51°29' E 002°01'815.9
2018-Jan-19 14:00N 51°34' E 002°10'916.2
2018-Jan-19 13:26N 51°41' E 002°20'816.9
2018-Jan-19 12:59N 51°47' E 002°29'817.5
2018-Jan-19 12:30N 51°53' E 002°38'918.1
2018-Jan-19 11:59N 51°60' E 002°48'918.0
2018-Jan-19 11:30N 52°02' E 003°02'918.3
2018-Jan-19 11:00N 52°03' E 003°17'918.3
2018-Jan-19 10:30N 52°04' E 003°32'917.6
2018-Jan-19 10:00N 52°03' E 003°46'611.5
2018-Jan-19 09:31N 52°02' E 003°55'714.6
2018-Jan-19 09:00N 51°58' E 004°05'2 3.8
2018-Jan-19 08:30N 51°57' E 004°03'0 0.6
2018-Jan-19 07:58N 51°57' E 004°03'0 0.0
2018-Jan-19 07:25N 51°57' E 004°03'0 0.0
2018-Jan-19 06:58N 51°57' E 004°03'0 0.0
2018-Jan-19 06:28N 51°57' E 004°03'0 0.0
2018-Jan-19 05:58N 51°57' E 004°03'0 0.0
2018-Jan-19 05:28N 51°57' E 004°03'0 0.0
2018-Jan-19 04:58N 51°57' E 004°03'0 0.0
2018-Jan-19 04:28N 51°57' E 004°03'0 0.0
2018-Jan-19 03:58N 51°57' E 004°03'0 0.0
2018-Jan-19 03:28N 51°57' E 004°03'0 0.0
2018-Jan-19 02:58N 51°57' E 004°03'0 0.0
2018-Jan-19 02:28N 51°57' E 004°03'0 0.0
2018-Jan-19 01:58N 51°57' E 004°03'0 0.0
2018-Jan-19 01:28N 51°57' E 004°03'0 0.0
2018-Jan-19 00:58N 51°57' E 004°03'0 0.0
2018-Jan-19 00:28N 51°57' E 004°03'0 0.0
2018-Jan-18 23:58N 51°57' E 004°03'0 0.0
2018-Jan-18 23:25N 51°57' E 004°03'0 0.0
2018-Jan-18 22:58N 51°57' E 004°03'0 0.0
2018-Jan-18 22:28N 51°57' E 004°03'0 0.0
2018-Jan-18 21:58N 51°57' E 004°03'0 0.0
2018-Jan-18 21:28N 51°57' E 004°03'0 0.0
2018-Jan-18 20:58N 51°57' E 004°03'0 0.0
2018-Jan-18 20:25N 51°57' E 004°03'0 0.0
2018-Jan-18 19:58N 51°57' E 004°03'0 0.0
2018-Jan-18 19:28N 51°57' E 004°03'0 0.0
2018-Jan-18 18:55N 51°57' E 004°03'0 0.0
2018-Jan-18 18:25N 51°57' E 004°03'0 0.0
2018-Jan-18 17:58N 51°57' E 004°03'0 0.0
2018-Jan-18 17:28N 51°57' E 004°03'0 0.0
2018-Jan-18 16:58N 51°57' E 004°03'0 0.0
2018-Jan-18 16:28N 51°57' E 004°03'0 0.0
2018-Jan-18 15:55N 51°57' E 004°03'0 0.0
2018-Jan-18 15:28N 51°57' E 004°03'0 0.0
2018-Jan-18 14:58N 51°57' E 004°03'0 0.0
2018-Jan-18 14:25N 51°57' E 004°03'0 0.0
2018-Jan-18 13:58N 51°57' E 004°03'0 0.0
2018-Jan-18 13:28N 51°57' E 004°03'0 0.0
2018-Jan-18 12:58N 51°57' E 004°03'0 0.0
2018-Jan-18 12:28N 51°57' E 004°03'0 0.0
2018-Jan-18 11:58N 51°57' E 004°03'0 0.0
2018-Jan-18 11:28N 51°57' E 004°03'0 0.0
2018-Jan-18 10:58N 51°57' E 004°03'0 0.0
2018-Jan-18 10:28N 51°57' E 004°03'0 0.0
2018-Jan-18 09:58N 51°57' E 004°03'0 0.0
2018-Jan-18 09:28N 51°57' E 004°03'0 0.0
2018-Jan-18 08:58N 51°57' E 004°03'0 0.0
2018-Jan-18 08:28N 51°57' E 004°03'0 0.0
2018-Jan-18 07:58N 51°57' E 004°03'0 0.0
2018-Jan-18 07:28N 51°57' E 004°03'0 0.0
2018-Jan-18 06:58N 51°57' E 004°03'0 0.0
2018-Jan-18 06:28N 51°57' E 004°03'0 0.0
2018-Jan-18 05:58N 51°57' E 004°03'0 0.0
2018-Jan-18 05:28N 51°57' E 004°03'0 0.0
2018-Jan-18 04:58N 51°57' E 004°03'0 0.0
2018-Jan-18 04:28N 51°57' E 004°03'0 0.0
2018-Jan-18 03:58N 51°57' E 004°03'0 0.0
2018-Jan-18 03:28N 51°57' E 004°03'0 0.0
2018-Jan-18 02:58N 51°57' E 004°03'0 0.0
2018-Jan-18 02:28N 51°57' E 004°03'0 0.0
2018-Jan-18 01:58N 51°57' E 004°03'0 0.0
2018-Jan-18 01:28N 51°57' E 004°03'0 0.0
2018-Jan-18 00:58N 51°57' E 004°03'0 0.0
2018-Jan-17 23:55N 51°57' E 004°03'  

Dump ship's entire track history